Time;durP1;ratioP1;P1;durP2;ratioP2;P2;SDS_P1;SDS_P2;PMS_P1;PMS_P2;Temp;Humidity;BMP_temperature;BMP_pressure;BME280_temperature;BME280_humidity;BME280_pressure;Samples;Min_cycle;Max_cycle;Signal;HPM_P1;HPM_P2
2022/06/29 00:00:16;;;;;;;;;2.67;2.67;;;;;22.11;43.24;101175.16;6279202;22;45267;-74
2022/06/29 00:02:43;;;;;;;;;2.00;2.00;;;;;22.08;43.51;101169.91;6278447;22;45221;-75
2022/06/29 00:05:10;;;;;;;;;2.00;2.00;;;;;22.07;43.60;101179.75;6278648;22;46352;-75
2022/06/29 00:07:35;;;;;;;;;2.67;2.67;;;;;22.04;43.60;101179.91;6278096;22;45205;-75
2022/06/29 00:10:01;;;;;;;;;2.33;2.33;;;;;22.01;43.62;101177.38;6279138;22;45227;-75
2022/06/29 00:12:27;;;;;;;;;3.00;2.00;;;;;21.99;44.20;101184.59;6278230;22;45437;-74
2022/06/29 00:14:52;;;;;;;;;4.00;3.00;;;;;21.98;44.08;101173.00;6276723;22;47168;-75
2022/06/29 00:17:18;;;;;;;;;4.33;3.00;;;;;21.94;44.19;101171.38;6276747;22;45358;-75
2022/06/29 00:19:43;;;;;;;;;2.00;2.00;;;;;21.94;44.51;101170.53;6251010;22;45301;-76
2022/06/29 00:22:09;;;;;;;;;2.00;2.00;;;;;21.90;44.36;101175.16;6276089;22;45664;-75
2022/06/29 00:24:35;;;;;;;;;4.00;3.00;;;;;21.89;44.38;101176.09;6278844;22;45264;-76
2022/06/29 00:27:01;;;;;;;;;3.00;3.00;;;;;21.88;44.68;101178.84;6278599;22;45487;-74
2022/06/29 00:29:27;;;;;;;;;2.00;2.00;;;;;21.85;44.57;101165.59;6278934;22;45223;-75
2022/06/29 00:31:53;;;;;;;;;3.00;3.00;;;;;21.83;44.50;101168.31;6278450;22;45110;-75
2022/06/29 00:34:18;;;;;;;;;2.00;2.00;;;;;21.80;44.74;101169.31;6278666;22;46460;-75
2022/06/29 00:36:43;;;;;;;;;2.67;1.33;;;;;21.77;45.08;101168.59;6278250;22;45217;-75
2022/06/29 00:39:09;;;;;;;;;2.00;2.00;;;;;21.75;45.12;101168.66;6278911;22;45153;-75
2022/06/29 00:41:38;;;;;;;;;2.67;2.67;;;;;21.75;45.19;101167.78;6278513;22;45463;-75
2022/06/29 00:44:04;;;;;;;;;2.00;2.00;;;;;21.74;44.95;101160.69;6278743;22;45419;-75
2022/06/29 00:46:29;;;;;;;;;3.00;3.00;;;;;21.72;45.24;101159.88;6278218;22;45241;-74
2022/06/29 00:48:55;;;;;;;;;2.00;2.00;;;;;21.72;45.58;101155.38;6278601;22;45209;-75
2022/06/29 00:51:20;;;;;;;;;2.00;2.00;;;;;21.73;45.02;101156.25;6278284;22;45538;-75
2022/06/29 00:53:50;;;;;;;;;3.00;3.00;;;;;21.72;45.13;101158.06;6250322;22;47897;-75
2022/06/29 00:56:19;;;;;;;;;1.67;1.67;;;;;21.70;45.37;101151.88;6277981;22;45290;-75
2022/06/29 00:58:46;;;;;;;;;3.00;3.00;;;;;21.69;45.57;101152.84;6278740;22;45242;-75
2022/06/29 01:01:12;;;;;;;;;3.00;3.00;;;;;21.69;45.26;101149.28;6278300;22;45102;-75
2022/06/29 01:03:38;;;;;;;;;3.33;2.67;;;;;21.66;45.46;101152.97;6278334;22;45456;-75
2022/06/29 01:06:03;;;;;;;;;4.00;2.00;;;;;21.64;45.66;101156.66;6279675;22;45171;-75
2022/06/29 01:08:29;;;;;;;;;3.67;2.67;;;;;21.65;46.10;101155.72;6280141;22;45122;-74
2022/06/29 01:10:54;;;;;;;;;4.67;4.00;;;;;21.61;45.73;101141.59;6279815;22;45098;-75
2022/06/29 01:13:20;;;;;;;;;3.00;2.00;;;;;21.63;45.82;101149.56;6278708;22;45413;-75
2022/06/29 01:15:45;;;;;;;;;2.00;2.00;;;;;21.63;45.83;101149.56;6279709;22;45294;-75
2022/06/29 01:18:11;;;;;;;;;2.00;2.00;;;;;21.61;46.22;101154.97;6280174;22;45351;-75
2022/06/29 01:20:36;;;;;;;;;2.00;2.00;;;;;21.62;45.71;101154.03;6279325;22;45289;-75
2022/06/29 01:23:02;;;;;;;;;3.33;3.33;;;;;21.59;46.23;101154.16;6251525;22;47082;-75
2022/06/29 01:25:27;;;;;;;;;2.00;2.00;;;;;21.58;45.85;101153.31;6279614;22;45278;-75
2022/06/29 01:27:53;;;;;;;;;2.00;2.00;;;;;21.57;46.08;101154.25;6279877;22;45231;-74
2022/06/29 01:30:18;;;;;;;;;3.67;3.67;;;;;21.53;45.92;101141.03;6279623;22;45505;-75
2022/06/29 01:32:44;;;;;;;;;3.33;3.33;;;;;21.50;46.12;101146.53;6251825;22;47328;-75
2022/06/29 01:35:12;;;;;;;;;1.33;1.33;;;;;21.45;46.30;101151.22;6251352;22;45514;-75
2022/06/29 01:37:39;;;;;;;;;4.00;3.00;;;;;21.41;46.62;101147.81;6279058;22;45174;-74
2022/06/29 01:40:06;;;;;;;;;2.00;1.67;;;;;21.38;46.33;101147.91;6279308;22;45421;-75
2022/06/29 01:42:31;;;;;;;;;2.00;2.00;;;;;21.34;46.38;101154.31;6279558;22;45259;-75
2022/06/29 01:44:56;;;;;;;;;2.00;1.00;;;;;21.32;46.39;101145.47;6279412;22;45279;-75
2022/06/29 01:47:22;;;;;;;;;2.00;2.00;;;;;21.30;46.79;101148.22;6279805;22;45287;-74
2022/06/29 01:49:47;;;;;;;;;3.75;3.25;;;;;21.28;47.14;101152.78;6279436;22;45416;-75
2022/06/29 01:52:13;;;;;;;;;2.33;2.33;;;;;21.26;47.19;101143.94;6279166;22;46196;-75
2022/06/29 01:54:39;;;;;;;;;3.00;3.00;;;;;21.24;47.21;101159.19;6279251;22;45368;-74
2022/06/29 01:57:04;;;;;;;;;4.00;3.00;;;;;21.21;46.96;101153.09;6277045;22;45367;-75
2022/06/29 01:59:29;;;;;;;;;2.00;2.00;;;;;21.19;47.59;101149.59;6279520;22;45292;-75
2022/06/29 02:01:55;;;;;;;;;2.67;2.67;;;;;21.14;47.35;101148.00;6279725;22;45252;-74
2022/06/29 02:04:21;;;;;;;;;4.67;3.67;;;;;21.10;47.47;101151.72;6279653;22;45169;-75
2022/06/29 02:06:46;;;;;;;;;2.00;2.00;;;;;21.05;47.61;101142.13;6279257;22;45200;-75
2022/06/29 02:09:11;;;;;;;;;2.00;2.00;;;;;21.01;47.40;101145.84;6279406;22;45431;-75
2022/06/29 02:11:37;;;;;;;;;3.67;3.00;;;;;20.99;47.83;101145.06;6279118;22;45165;-75
2022/06/29 02:14:02;;;;;;;;;3.00;1.00;;;;;20.96;48.03;101151.41;6250780;22;45230;-75
2022/06/29 02:16:28;;;;;;;;;2.50;2.00;;;;;20.95;47.66;101138.94;6279477;22;45657;-75
2022/06/29 02:18:53;;;;;;;;;1.00;1.00;;;;;20.92;47.67;101137.28;6279347;22;45362;-74
2022/06/29 02:21:19;;;;;;;;;3.33;2.33;;;;;20.91;47.59;101138.22;6278719;22;45244;-75
2022/06/29 02:23:44;;;;;;;;;3.33;3.33;;;;;20.90;48.07;101141.84;6251330;22;45502;-75
2022/06/29 02:26:10;;;;;;;;;2.33;2.33;;;;;20.88;48.09;101137.47;6279419;22;45286;-74
2022/06/29 02:28:36;;;;;;;;;3.00;3.00;;;;;20.83;47.75;101140.34;6279262;22;45318;-75
2022/06/29 02:36:29;;;;;;;;;3.33;3.00;;;;;20.73;48.21;101136.28;6278814;22;45294;-74
2022/06/29 02:38:55;;;;;;;;;4.00;3.00;;;;;20.74;48.24;101131.78;6279266;22;45370;-74
2022/06/29 02:41:20;;;;;;;;;3.00;3.00;;;;;20.73;48.50;101133.59;6279074;22;45291;-74
2022/06/29 02:43:46;;;;;;;;;4.00;3.00;;;;;20.72;48.60;101139.03;6277161;22;45823;-75
2022/06/29 02:46:11;;;;;;;;;2.00;2.00;;;;;20.70;48.83;101133.72;6279452;22;45219;-74
2022/06/29 02:48:36;;;;;;;;;3.00;2.33;;;;;20.69;48.87;101132.84;6279418;22;45236;-75
2022/06/29 02:51:02;;;;;;;;;3.67;3.67;;;;;20.69;49.14;101132.84;6279174;22;45915;-75
2022/06/29 02:53:27;;;;;;;;;2.33;2.33;;;;;20.68;48.40;101130.22;6279162;22;45325;-75
2022/06/29 02:55:53;;;;;;;;;3.33;2.00;;;;;20.66;48.87;101130.31;6279656;22;45370;-75
2022/06/29 02:58:19;;;;;;;;;2.00;2.00;;;;;20.67;48.67;101134.72;6279304;22;45406;-74
2022/06/29 03:00:44;;;;;;;;;3.67;3.00;;;;;20.67;48.45;101131.19;6278909;22;45523;-75
2022/06/29 03:03:10;;;;;;;;;2.67;2.67;;;;;20.63;48.63;101127.72;6279217;22;45208;-75
2022/06/29 03:05:35;;;;;;;;;3.67;3.00;;;;;20.58;48.87;101126.16;6279021;22;45129;-74
2022/06/29 03:08:01;;;;;;;;;3.33;3.33;;;;;20.59;48.83;101127.94;6277139;22;45489;-74
2022/06/29 03:10:26;;;;;;;;;1.67;1.67;;;;;20.56;48.72;101126.25;6278969;22;46178;-74
2022/06/29 03:12:51;;;;;;;;;3.33;3.00;;;;;20.53;48.52;101123.66;6278945;22;45178;-75
2022/06/29 03:15:18;;;;;;;;;2.67;2.67;;;;;20.51;48.68;101130.88;6279177;22;45082;-75
2022/06/29 03:17:43;;;;;;;;;2.00;2.00;;;;;20.47;48.75;101132.81;6279024;22;45386;-74
2022/06/29 03:20:09;;;;;;;;;2.00;2.00;;;;;20.47;48.91;101139.94;6278794;22;46424;-74
2022/06/29 03:22:35;;;;;;;;;5.00;3.75;;;;;20.45;48.81;101133.78;6278868;22;45389;-74
2022/06/29 03:25:00;;;;;;;;;4.75;4.75;;;;;20.40;49.28;101139.31;6278861;22;45221;-75
2022/06/29 03:27:26;;;;;;;;;3.00;3.00;;;;;20.36;49.36;101135.00;6278605;22;45339;-75
2022/06/29 03:29:51;;;;;;;;;3.00;3.00;;;;;20.32;49.57;101133.38;6278797;22;46028;-74
2022/06/29 03:32:17;;;;;;;;;3.00;3.00;;;;;20.25;49.47;101130.06;6279022;22;45271;-75
2022/06/29 03:34:42;;;;;;;;;3.50;2.75;;;;;20.21;49.76;101130.25;6278893;22;45437;-74
2022/06/29 03:37:08;;;;;;;;;4.00;3.00;;;;;20.19;49.67;101122.28;6278581;22;45613;-75
2022/06/29 03:39:33;;;;;;;;;4.00;3.00;;;;;20.16;49.82;101122.38;6279063;22;46225;-74
2022/06/29 03:41:59;;;;;;;;;3.67;3.67;;;;;20.18;50.05;101122.31;6279017;22;45361;-75
2022/06/29 03:44:25;;;;;;;;;2.25;2.25;;;;;20.19;49.75;101118.72;6277293;22;45235;-75
2022/06/29 03:46:50;;;;;;;;;3.00;3.00;;;;;20.17;50.22;101121.44;6279143;22;45231;-75
2022/06/29 03:49:15;;;;;;;;;4.67;3.00;;;;;20.14;49.99;101124.25;6277105;22;46850;-75
2022/06/29 03:51:41;;;;;;;;;2.25;2.25;;;;;20.12;49.64;101126.09;6278930;22;45180;-74
2022/06/29 03:54:06;;;;;;;;;3.25;3.25;;;;;20.10;50.39;101121.72;6251370;22;45121;-74
2022/06/29 03:56:31;;;;;;;;;2.75;2.75;;;;;20.02;49.70;101130.94;6279057;22;45133;-75
2022/06/29 03:58:57;;;;;;;;;2.33;2.33;;;;;19.95;49.69;101126.72;6278795;22;46227;-75
2022/06/29 04:01:22;;;;;;;;;4.75;3.50;;;;;19.95;50.24;101129.41;6279149;22;45284;-74
2022/06/29 04:03:48;;;;;;;;;2.67;2.67;;;;;19.93;50.43;101130.38;6279204;22;45694;-75
2022/06/29 04:06:13;;;;;;;;;4.00;4.00;;;;;19.94;50.63;101129.44;6278632;22;45152;-75
2022/06/29 04:08:39;;;;;;;;;4.67;4.67;;;;;19.93;50.47;101122.38;6278946;22;45879;-75
2022/06/29 04:11:48;;;;;;;;;5.25;4.25;;;;;19.90;50.85;101125.16;6279031;22;45225;-75
2022/06/29 04:13:52;;;;;;;;;2.67;2.67;;;;;19.86;50.60;101123.50;6277672;22;45334;-74
2022/06/29 04:16:17;;;;;;;;;2.33;2.33;;;;;19.87;50.61;101126.13;6250904;22;45458;-75
2022/06/29 04:18:42;;;;;;;;;4.75;3.75;;;;;19.88;50.92;101127.88;6278583;22;45386;-75
2022/06/29 04:21:08;;;;;;;;;4.50;3.50;;;;;19.88;50.96;101124.31;6276215;22;45303;-75
2022/06/29 04:23:33;;;;;;;;;2.75;2.75;;;;;19.89;50.88;101120.72;6278666;22;45395;-74
2022/06/29 04:25:58;;;;;;;;;3.00;3.00;;;;;19.91;50.67;101116.19;6276749;22;45345;-75
2022/06/29 04:28:26;;;;;;;;;3.25;3.25;;;;;19.92;50.57;101123.31;6278611;22;45335;-75
2022/06/29 04:30:52;;;;;;;;;3.00;3.00;;;;;19.93;50.86;101127.72;6278326;22;45189;-75
2022/06/29 04:33:17;;;;;;;;;5.00;4.75;;;;;19.94;50.93;101122.31;6278509;22;45106;-75
2022/06/29 04:35:42;;;;;;;;;3.00;3.00;;;;;19.93;50.95;101122.38;6277842;22;45221;-75
2022/06/29 04:38:08;;;;;;;;;4.00;3.00;;;;;19.92;51.00;101128.66;6278186;22;45327;-75
2022/06/29 04:40:33;;;;;;;;;4.25;3.25;;;;;19.90;50.71;101127.81;6278780;22;45106;-74
2022/06/29 04:42:59;;;;;;;;;2.67;2.00;;;;;19.90;51.23;101131.38;6278826;22;45170;-74
2022/06/29 04:48:12;;;;;;;;;3.50;3.50;;;;;19.91;50.89;101121.53;6233493;22;45583;-74
2022/06/29 04:50:38;;;;;;;;;4.33;3.67;;;;;19.88;51.07;101118.97;6250288;22;45665;-75
2022/06/29 04:53:03;;;;;;;;;5.00;4.00;;;;;19.88;50.87;101132.34;6278518;22;45665;-75
2022/06/29 04:55:29;;;;;;;;;4.00;4.00;;;;;19.84;51.19;101128.91;6278556;22;45338;-75
2022/06/29 04:57:55;;;;;;;;;4.00;4.00;;;;;19.82;50.96;101134.31;6278382;22;45462;-75
2022/06/29 05:00:20;;;;;;;;;3.33;3.33;;;;;19.79;51.27;101129.06;6278580;22;45239;-75
2022/06/29 05:02:46;;;;;;;;;4.50;4.50;;;;;19.78;51.40;101122.00;6278688;22;45203;-75
2022/06/29 05:05:11;;;;;;;;;5.00;4.33;;;;;19.80;51.06;101114.78;6278642;22;45216;-75
2022/06/29 05:07:36;;;;;;;;;5.50;4.00;;;;;19.79;51.10;101117.53;6277856;22;45839;-75
2022/06/29 05:10:02;;;;;;;;;3.00;3.00;;;;;19.80;51.07;101124.59;6278553;22;45212;-75
2022/06/29 05:12:27;;;;;;;;;4.33;3.00;;;;;19.78;51.12;101123.78;6277983;22;45426;-75
2022/06/29 05:14:53;;;;;;;;;5.67;3.67;;;;;19.79;51.54;101121.06;6278298;22;45421;-74
2022/06/29 05:17:18;;;;;;;;;3.67;3.67;;;;;19.77;51.55;101120.25;6277934;22;45534;-75
2022/06/29 05:19:44;;;;;;;;;4.67;3.67;;;;;19.76;50.65;101114.97;6278127;22;45232;-76
2022/06/29 05:22:10;;;;;;;;;3.00;3.00;;;;;19.75;50.52;101118.53;6277884;22;45129;-75
2022/06/29 05:24:35;;;;;;;;;2.50;2.50;;;;;19.74;50.32;101120.34;6278212;22;45456;-76
2022/06/29 05:27:00;;;;;;;;;2.00;1.67;;;;;19.73;49.59;101123.09;6278046;22;45351;-76
2022/06/29 05:29:26;;;;;;;;;4.00;4.00;;;;;19.67;49.57;101129.50;6278232;22;45248;-76
2022/06/29 05:31:52;;;;;;;;;3.00;2.00;;;;;19.60;49.65;101123.50;6278148;22;45231;-76
2022/06/29 05:34:18;;;;;;;;;1.33;1.33;;;;;19.56;49.54;101124.50;6278067;22;45388;-75
2022/06/29 05:36:43;;;;;;;;;2.67;2.67;;;;;19.51;49.40;101126.50;6249852;22;47042;-75
2022/06/29 05:39:09;;;;;;;;;2.33;2.33;;;;;19.46;49.49;101127.53;6278337;22;45362;-77
2022/06/29 05:41:34;;;;;;;;;2.00;2.00;;;;;19.42;49.91;101128.59;6250384;22;45334;-76
2022/06/29 05:44:01;;;;;;;;;3.33;1.67;;;;;19.38;49.58;101128.69;6278331;22;45346;-76
2022/06/29 05:46:26;;;;;;;;;3.75;3.75;;;;;19.41;49.23;101124.19;6277975;22;46248;-77
2022/06/29 05:48:52;;;;;;;;;2.00;2.00;;;;;19.42;48.99;101126.78;6277870;22;45148;-76
2022/06/29 05:51:17;;;;;;;;;3.00;3.00;;;;;19.44;49.30;101114.25;6278668;22;45097;-76
2022/06/29 05:53:43;;;;;;;;;4.00;4.00;;;;;19.48;49.27;101115.88;6277419;22;45264;-76
2022/06/29 05:56:08;;;;;;;;;3.00;3.00;;;;;19.50;49.33;101119.38;6279122;22;45486;-77
2022/06/29 05:58:34;;;;;;;;;2.00;2.00;;;;;19.53;49.20;101118.41;6279415;22;45145;-77
2022/06/29 06:00:59;;;;;;;;;4.00;3.00;;;;;19.56;48.93;101119.16;6279440;22;45208;-76
2022/06/29 06:03:25;;;;;;;;;2.00;2.00;;;;;19.61;48.84;101127.03;6251946;22;45503;-76
2022/06/29 06:05:50;;;;;;;;;3.00;2.00;;;;;19.69;48.71;101121.44;6279231;22;45425;-77
2022/06/29 06:08:15;;;;;;;;;2.33;2.33;;;;;19.72;48.85;101127.53;6279443;22;45354;-76
2022/06/29 06:10:41;;;;;;;;;2.33;2.33;;;;;19.76;48.74;101122.97;6279705;22;45488;-76
2022/06/29 06:13:08;;;;;;;;;5.33;2.00;;;;;19.80;48.18;101124.59;6246015;22;45346;-77
2022/06/29 06:15:34;;;;;;;;;3.25;2.75;;;;;19.85;47.98;101124.44;6246079;22;47924;-78
2022/06/29 06:18:01;;;;;;;;;2.33;2.00;;;;;19.88;47.93;101127.88;6246405;22;45367;-78
2022/06/29 06:20:27;;;;;;;;;3.00;2.00;;;;;19.93;48.19;101120.56;6245614;22;45379;-76
2022/06/29 06:22:52;;;;;;;;;4.75;2.75;;;;;19.93;47.87;101117.00;6245875;22;45272;-78
2022/06/29 06:25:17;;;;;;;;;2.75;2.25;;;;;19.96;47.67;101125.78;6247918;22;45473;-76
2022/06/29 06:27:43;;;;;;;;;3.00;2.25;;;;;20.00;47.43;101121.22;6248065;22;45097;-76
2022/06/29 06:30:09;;;;;;;;;2.00;2.00;;;;;20.02;47.90;101122.91;6248144;22;45097;-76
2022/06/29 06:32:34;;;;;;;;;3.33;2.00;;;;;20.05;47.45;101128.13;6248442;22;45111;-76
2022/06/29 06:34:59;;;;;;;;;2.00;1.00;;;;;20.09;47.52;101125.34;6247946;22;45387;-75
2022/06/29 06:37:25;;;;;;;;;5.67;2.33;;;;;20.11;47.48;101129.72;6245591;22;46078;-76
2022/06/29 06:42:34;;;;;;;;;3.00;1.67;;;;;20.13;46.60;101133.19;6247260;22;45196;-75
2022/06/29 06:45:00;;;;;;;;;2.00;2.00;;;;;20.15;46.41;101127.78;6247753;22;45235;-75
2022/06/29 06:47:25;;;;;;;;;3.00;1.00;;;;;20.22;46.48;101126.63;6247853;22;45342;-76
2022/06/29 06:49:50;;;;;;;;;2.00;2.00;;;;;20.28;47.03;101121.91;6220462;22;45344;-76
2022/06/29 06:52:17;;;;;;;;;2.00;2.00;;;;;20.38;46.44;101118.91;6247661;22;45368;-76
2022/06/29 06:54:44;;;;;;;;;2.00;1.00;;;;;20.45;46.74;101110.59;6247453;22;45322;-75
2022/06/29 06:57:10;;;;;;;;;2.00;2.00;;;;;20.56;46.21;101112.00;6247706;22;45260;-75
2022/06/29 06:59:36;;;;;;;;;3.33;2.67;;;;;20.65;46.18;101116.97;6248136;22;45178;-75
2022/06/29 07:02:02;;;;;;;;;4.33;2.00;;;;;20.72;46.00;101120.28;6247013;22;45482;-76
2022/06/29 07:04:28;;;;;;;;;1.67;1.67;;;;;20.78;45.69;101117.38;6247587;22;45988;-76
2022/06/29 07:06:53;;;;;;;;;4.00;4.00;;;;;20.85;46.00;101111.72;6247190;22;45196;-75
2022/06/29 07:09:18;;;;;;;;;2.00;1.33;;;;;20.92;45.74;101121.22;6247888;22;45227;-75
2022/06/29 07:11:44;;;;;;;;;2.00;1.00;;;;;20.96;45.14;101127.34;6247791;22;45430;-75
2022/06/29 07:14:09;;;;;;;;;1.67;0.33;;;;;20.98;45.16;101121.91;6246714;22;45889;-76
2022/06/29 07:16:34;;;;;;;;;2.33;2.33;;;;;21.01;44.85;101120.00;6245994;22;46087;-76
2022/06/29 07:19:00;;;;;;;;;2.00;2.00;;;;;21.09;44.72;101125.91;6245869;22;45462;-76
2022/06/29 07:21:25;;;;;;;;;0.00;0.00;;;;;21.14;44.65;101120.31;6247119;22;45299;-76
2022/06/29 07:23:51;;;;;;;;;1.67;1.67;;;;;21.21;44.47;101124.50;6247834;22;45549;-76
2022/06/29 07:26:16;;;;;;;;;1.00;1.00;;;;;21.24;44.50;101127.03;6245888;22;45243;-76
2022/06/29 07:28:41;;;;;;;;;2.00;2.00;;;;;21.27;43.96;101129.59;6247978;22;45595;-76
2022/06/29 07:31:07;;;;;;;;;1.67;1.67;;;;;21.30;43.81;101129.50;6247860;22;45249;-75
2022/06/29 07:33:33;;;;;;;;;3.00;3.00;;;;;21.34;43.25;101122.19;6247476;22;45290;-75
2022/06/29 07:35:58;;;;;;;;;1.67;1.67;;;;;21.42;43.61;101119.22;6247475;22;45363;-78
2022/06/29 07:38:24;;;;;;;;;2.00;2.00;;;;;21.47;43.67;101115.41;6247548;22;45250;-78
2022/06/29 07:40:49;;;;;;;;;4.00;2.67;;;;;21.54;43.78;101124.03;6245910;22;45853;-78
2022/06/29 07:43:15;;;;;;;;;1.00;1.00;;;;;21.61;43.30;101114.78;6247628;22;45413;-78
2022/06/29 07:45:40;;;;;;;;;1.00;1.00;;;;;21.67;43.26;101110.97;6245945;22;45201;-79
2022/06/29 07:48:05;;;;;;;;;2.33;2.33;;;;;21.74;42.99;101115.13;6220063;22;45249;-78
2022/06/29 07:50:31;;;;;;;;;4.00;3.00;;;;;21.80;42.96;101120.22;6247408;22;45331;-78
2022/06/29 07:52:57;;;;;;;;;2.00;2.00;;;;;21.84;43.13;101118.25;6247174;22;45273;-78
2022/06/29 07:55:24;;;;;;;;;2.67;2.67;;;;;21.91;43.10;101115.22;6247341;22;45141;-78
2022/06/29 07:57:50;;;;;;;;;2.00;1.33;;;;;21.99;42.97;101113.06;6219344;22;45398;-79
2022/06/29 08:00:15;;;;;;;;;2.00;2.00;;;;;22.05;43.42;101105.69;6219603;22;45671;-78
2022/06/29 08:02:41;;;;;;;;;4.67;3.33;;;;;22.12;43.00;101105.34;6219448;22;46903;-78
2022/06/29 08:05:06;;;;;;;;;1.00;1.00;;;;;22.17;42.49;101118.53;6247285;22;45310;-78
2022/06/29 08:07:32;;;;;;;;;4.00;3.67;;;;;22.21;42.47;101114.78;6247074;22;45339;-78
2022/06/29 08:09:57;;;;;;;;;1.00;1.00;;;;;22.25;42.18;101116.41;6219682;22;45415;-78
2022/06/29 08:12:23;;;;;;;;;2.67;1.67;;;;;22.29;42.33;101115.31;6246483;22;45338;-78
2022/06/29 08:14:48;;;;;;;;;2.00;2.00;;;;;22.33;41.97;101110.69;6219387;22;45320;-78
2022/06/29 08:17:13;;;;;;;;;4.00;0.67;;;;;22.32;42.35;101109.81;6220068;22;45278;-78
2022/06/29 08:19:39;;;;;;;;;3.00;3.00;;;;;22.34;42.50;101107.06;6245862;22;45723;-77
2022/06/29 08:22:04;;;;;;;;;2.33;2.00;;;;;22.39;42.84;101099.66;6246740;22;46451;-78
2022/06/29 08:24:29;;;;;;;;;2.00;1.33;;;;;22.47;42.79;101092.13;6246383;22;45298;-77
2022/06/29 08:26:55;;;;;;;;;2.33;2.33;;;;;22.56;42.37;101096.16;6247280;22;45362;-78
2022/06/29 08:29:20;;;;;;;;;3.00;1.00;;;;;22.59;42.27;101093.34;6246897;22;45175;-82
2022/06/29 08:31:46;;;;;;;;;1.67;1.67;;;;;22.59;42.07;101088.84;6243082;22;45242;-82
2022/06/29 08:34:13;;;;;;;;;2.00;1.00;;;;;22.66;41.80;101089.41;6214634;22;45510;-79
2022/06/29 08:36:39;;;;;;;;;1.33;1.33;;;;;22.71;41.76;101091.88;6243114;22;45495;-81
2022/06/29 08:39:05;;;;;;;;;2.00;2.00;;;;;22.77;41.60;101091.56;6244302;22;45221;-76
2022/06/29 08:41:32;;;;;;;;;1.00;1.00;;;;;22.82;41.74;101090.41;6244564;22;45478;-75
2022/06/29 08:44:03;;;;;;;;;1.67;1.00;;;;;22.89;41.51;101082.94;6216838;22;45619;-75
2022/06/29 08:46:28;;;;;;;;;1.33;1.00;;;;;22.97;41.32;101087.94;6245282;22;45296;-76
2022/06/29 08:48:54;;;;;;;;;2.00;2.00;;;;;23.06;40.86;101091.03;6246486;22;45497;-78
2022/06/29 08:51:22;;;;;;;;;1.00;1.00;;;;;23.13;40.62;101093.44;6244256;22;47199;-78
2022/06/29 08:53:49;;;;;;;;;2.67;1.67;;;;;23.19;40.38;101090.41;6218177;22;45305;-76
2022/06/29 08:56:17;;;;;;;;;0.67;0.67;;;;;23.28;39.80;101092.63;6243149;22;45344;-77
2022/06/29 08:58:45;;;;;;;;;2.33;1.00;;;;;23.27;39.87;101089.06;6246519;22;45366;-77
2022/06/29 09:01:12;;;;;;;;;2.67;2.00;;;;;23.26;39.69;101086.47;6231046;22;46101;-76
2022/06/29 09:03:37;;;;;;;;;2.00;2.00;;;;;23.33;40.30;101093.25;6246754;22;45309;-77
2022/06/29 09:06:03;;;;;;;;;1.33;1.33;;;;;23.41;40.59;101090.19;6246537;22;45302;-77
2022/06/29 09:08:32;;;;;;;;;2.00;1.00;;;;;23.51;39.52;101096.81;6240278;22;45576;-75
2022/06/29 09:11:18;;;;;;;;;1.33;1.33;;;;;23.54;38.81;101089.44;6245973;22;45600;-75
2022/06/29 09:13:43;;;;;;;;;1.33;1.33;;;;;23.59;38.94;101091.91;6268934;22;45354;-75
2022/06/29 09:16:09;;;;;;;;;0.00;0.00;;;;;23.60;38.47;101098.16;6277643;22;45470;-76
2022/06/29 09:18:35;;;;;;;;;1.00;1.00;;;;;23.59;38.08;101099.97;6249332;22;45305;-76
2022/06/29 09:21:03;;;;;;;;;2.00;1.00;;;;;23.61;38.17;101103.47;6276902;22;46264;-76
2022/06/29 09:23:30;;;;;;;;;0.00;0.00;;;;;23.62;37.13;101105.19;6276581;22;45308;-76
2022/06/29 09:25:56;;;;;;;;;1.00;1.00;;;;;23.62;37.29;101102.50;6277456;22;45279;-76
2022/06/29 09:28:23;;;;;;;;;0.00;0.00;;;;;23.61;37.29;101100.78;6249948;22;45461;-76
2022/06/29 09:30:49;;;;;;;;;1.33;1.00;;;;;23.64;37.10;101099.75;6278719;22;45360;-75
2022/06/29 09:33:15;;;;;;;;;3.00;2.00;;;;;23.66;37.01;101101.41;6277194;22;45255;-76
2022/06/29 09:35:41;;;;;;;;;0.00;0.00;;;;;23.71;36.91;101117.25;6277569;22;45306;-77
2022/06/29 09:38:24;;;;;;;;;2.67;1.67;;;;;23.68;36.67;101107.56;6278140;22;45418;-76
2022/06/29 09:40:59;;;;;;;;;1.00;1.00;;;;;23.70;37.43;101110.16;6277225;22;45457;-75
2022/06/29 09:43:25;;;;;;;;;1.67;1.67;;;;;23.73;37.52;101105.50;6249427;22;45286;-75
2022/06/29 09:45:52;;;;;;;;;1.00;1.00;;;;;23.76;36.87;101097.31;6278568;22;45379;-75
2022/06/29 09:48:21;;;;;;;;;1.00;1.00;;;;;23.80;37.22;101094.47;6277194;22;45378;-75
2022/06/29 09:50:49;;;;;;;;;2.00;2.00;;;;;23.78;36.76;101105.28;6277965;22;45223;-76
2022/06/29 09:53:17;;;;;;;;;1.00;1.00;;;;;23.81;36.58;101104.25;6277666;22;45222;-75
2022/06/29 09:55:43;;;;;;;;;2.00;2.00;;;;;23.85;36.94;101098.63;6277919;22;45267;-77
2022/06/29 09:58:09;;;;;;;;;1.00;1.00;;;;;23.96;36.97;101103.44;6247288;22;45811;-74
2022/06/29 10:03:20;;;;;;;;;1.33;1.33;;;;;24.12;36.96;101098.09;6274225;22;45318;-77
2022/06/29 10:05:55;;;;;;;;;2.00;1.00;;;;;24.11;36.61;101090.94;6276416;22;45350;-75
2022/06/29 10:08:20;;;;;;;;;0.00;0.00;;;;;24.09;36.40;101083.00;6276546;22;45300;-74
2022/06/29 10:10:53;;;;;;;;;1.00;1.00;;;;;24.11;36.31;101078.41;6276838;22;46320;-74
2022/06/29 10:13:40;;;;;;;;;1.00;1.00;;;;;24.16;35.90;101080.81;6276636;22;45379;-74
2022/06/29 10:16:27;;;;;;;;;0.67;0.00;;;;;24.23;35.75;101082.22;6277365;22;45303;-74
2022/06/29 10:19:23;;;;;;;;;1.00;1.00;;;;;24.33;36.27;101082.59;6247523;22;45292;-74
2022/06/29 10:21:49;;;;;;;;;1.00;1.00;;;;;24.41;36.03;101069.56;6276596;22;45355;-74
2022/06/29 10:24:18;;;;;;;;;2.33;2.00;;;;;24.54;35.60;101075.13;6277094;22;45139;-75
2022/06/29 10:26:47;;;;;;;;;1.33;1.33;;;;;24.60;35.26;101075.66;6277634;22;45311;-75
2022/06/29 10:29:18;;;;;;;;;1.00;1.00;;;;;24.65;35.53;101068.19;6249914;22;45501;-80
2022/06/29 10:32:08;;;;;;;;;0.67;0.67;;;;;24.77;34.82;101065.75;6276820;22;45347;-76
2022/06/29 10:34:34;;;;;;;;;2.33;2.00;;;;;24.91;34.16;101052.34;6275521;22;45238;-77
2022/06/29 10:37:02;;;;;;;;;1.00;1.00;;;;;25.06;34.35;101064.03;6277836;22;45252;-76
2022/06/29 10:39:54;;;;;;;;;0.33;0.33;;;;;25.19;33.97;101067.78;6277315;22;45362;-76
2022/06/29 10:45:09;;;;;;;;;1.00;1.00;;;;;25.46;33.46;101054.44;6277615;22;45409;-76
2022/06/29 10:47:36;;;;;;;;;2.00;2.00;;;;;25.59;32.96;101051.88;6277778;22;45319;-79
2022/06/29 10:52:44;;;;;;;;;1.00;1.00;;;;;25.61;32.99;101051.75;6276871;22;46166;-79
2022/06/29 10:55:10;;;;;;;;;4.67;3.33;;;;;25.56;32.74;101051.22;6277965;22;45250;-79
2022/06/29 10:57:37;;;;;;;;;3.00;2.00;;;;;25.56;32.45;101049.38;6250166;22;45340;-76
2022/06/29 11:00:06;;;;;;;;;42.25;37.25;;;;;25.60;32.81;101044.66;6277913;22;45424;-78
2022/06/29 11:02:31;;;;;;;;;2.00;1.00;;;;;25.70;33.19;101041.28;6277851;22;45595;-79
2022/06/29 11:04:58;;;;;;;;;2.33;1.33;;;;;25.83;31.90;101045.91;6279283;22;45303;-76
2022/06/29 11:12:53;;;;;;;;;1.00;1.00;;;;;26.27;31.92;101042.22;6277508;22;45711;-80
2022/06/29 11:15:39;;;;;;;;;1.00;1.00;;;;;26.37;31.83;101037.97;6277894;22;45393;-80
2022/06/29 11:18:26;;;;;;;;;2.00;1.00;;;;;26.57;32.09;101025.88;6251378;22;45303;-80
2022/06/29 11:20:52;;;;;;;;;1.00;1.00;;;;;26.75;32.19;101021.94;6277981;22;45176;-81
2022/06/29 11:23:20;;;;;;;;;2.33;2.33;;;;;26.93;31.02;101025.25;6277253;22;45734;-81
2022/06/29 11:25:48;;;;;;;;;2.00;2.00;;;;;27.02;30.73;101021.06;6250219;22;45408;-79
2022/06/29 11:28:17;;;;;;;;;0.33;0.33;;;;;27.12;30.47;101019.47;6249703;22;45363;-79
2022/06/29 11:30:58;;;;;;;;;1.00;1.00;;;;;27.27;30.61;101031.09;6278022;22;45277;-79
2022/06/29 11:33:27;;;;;;;;;2.00;2.00;;;;;27.34;30.32;101029.69;6277186;22;45366;-80
2022/06/29 11:35:53;;;;;;;;;0.33;0.33;;;;;27.43;30.52;101022.78;6249338;22;45937;-79
2022/06/29 11:38:19;;;;;;;;;1.67;0.67;;;;;27.48;29.77;101023.31;6277706;22;45268;-79
2022/06/29 11:40:46;;;;;;;;;1.00;1.00;;;;;27.47;29.75;101018.88;6277645;22;45161;-80
2022/06/29 11:43:18;;;;;;;;;1.00;1.00;;;;;27.44;29.50;101024.50;6277089;22;45436;-80
2022/06/29 11:45:51;;;;;;;;;1.00;1.00;;;;;27.43;29.88;101022.78;6277838;22;45446;-79